Time,TemperatureF,DewpointF,PressureIn,WindDirection,WindDirectionDegrees,WindSpeedMPH,WindSpeedGustMPH,Humidity,HourlyPrecipIn,Conditions,Clouds,dailyrainin,SoftwareType,DateUTC
2013-01-16 00:03:00,69.0,65.0,30.04,SE,139,7.0,34.0,87,-99.99,,,-99.99,,2013-01-16 05:03:00,
2013-01-16 00:12:00,68.0,65.0,30.04,East,96,4.0,30.0,91,-99.99,,,-99.99,,2013-01-16 05:12:00,
2013-01-16 00:23:00,68.0,65.0,30.04,East,96,4.0,30.0,91,-99.99,,,-99.99,,2013-01-16 05:23:00,
2013-01-16 00:32:00,67.0,65.0,30.04,SE,125,19.0,32.0,93,-99.99,,,-99.99,,2013-01-16 05:32:00,
2013-01-16 00:42:00,67.0,65.0,30.04,East,97,1.0,2.0,94,-99.99,,,-99.99,,2013-01-16 05:42:00,
2013-01-16 00:53:00,67.0,65.0,30.04,SW,223,30.0,44.0,95,-99.99,,,-99.99,,2013-01-16 05:53:00,
2013-01-16 01:03:00,67.0,65.0,30.04,SW,223,30.0,44.0,95,-99.99,,,-99.99,,2013-01-16 06:03:00,
2013-01-16 01:12:00,67.0,65.0,30.04,SW,223,30.0,44.0,95,-99.99,,,-99.99,,2013-01-16 06:12:00,
2013-01-16 01:22:00,67.0,65.0,30.04,SW,223,30.0,44.0,95,-99.99,,,-99.99,,2013-01-16 06:22:00,
2013-01-16 01:30:00,66.0,65.0,30.04,East,97,2.0,7.0,96,-99.99,,,-99.99,,2013-01-16 06:30:00,
2013-01-16 01:32:00,66.0,64.0,30.04,East,82,2.0,2.0,96,-99.99,,,-99.99,,2013-01-16 06:32:00,
2013-01-16 01:43:00,66.0,65.0,30.04,ESE,103,2.0,8.0,96,-99.99,,,-99.99,,2013-01-16 06:43:00,
2013-01-16 01:53:00,66.0,65.0,30.04,East,97,2.0,7.0,96,-99.99,,,-99.99,,2013-01-16 06:53:00,
2013-01-16 02:02:00,66.0,65.0,30.04,East,97,2.0,7.0,96,-99.99,,,-99.99,,2013-01-16 07:02:00,
2013-01-16 02:12:00,66.0,65.0,30.04,East,97,2.0,7.0,96,-99.99,,,-99.99,,2013-01-16 07:12:00,
2013-01-16 02:22:00,66.0,65.0,30.04,East,97,2.0,7.0,96,-99.99,,,-99.99,,2013-01-16 07:22:00,
2013-01-16 03:12:00,65.0,64.0,30.04,SSW,204,1.0,7.0,97,-99.99,,,-99.99,,2013-01-16 08:12:00,
2013-01-16 03:23:00,65.0,64.0,30.04,SSW,204,1.0,7.0,97,-99.99,,,-99.99,,2013-01-16 08:23:00,
2013-01-16 03:32:00,65.0,64.0,30.04,SSW,204,1.0,7.0,97,-99.99,,,-99.99,,2013-01-16 08:32:00,
2013-01-16 03:42:00,64.0,64.0,30.04,SSW,195,1.0,8.0,97,-99.99,,,-99.99,,2013-01-16 08:42:00,
2013-01-16 03:53:00,65.0,64.0,30.04,West,277,2.0,9.0,97,-99.99,,,-99.99,,2013-01-16 08:53:00,
2013-01-16 04:02:00,65.0,64.0,30.04,West,277,2.0,9.0,97,-99.99,,,-99.99,,2013-01-16 09:02:00,
2013-01-16 04:12:00,65.0,64.0,30.04,WSW,238,2.0,9.0,97,-99.99,,,-99.99,,2013-01-16 09:12:00,
2013-01-16 04:22:00,65.0,64.0,30.04,WSW,238,2.0,9.0,97,-99.99,,,-99.99,,2013-01-16 09:22:00,
2013-01-16 04:32:00,64.0,63.0,30.04,WSW,253,1.0,4.0,97,-99.99,,,-99.99,,2013-01-16 09:32:00,
2013-01-16 04:42:00,64.0,64.0,30.04,East,89,0.0,8.0,97,-99.99,,,-99.99,,2013-01-16 09:42:00,
2013-01-16 04:53:00,65.0,64.0,30.03,SSE,163,1.0,30.0,98,-99.99,,,-99.99,,2013-01-16 09:53:00,
2013-01-16 05:03:00,65.0,64.0,30.03,SSE,163,1.0,30.0,98,-99.99,,,-99.99,,2013-01-16 10:03:00,
2013-01-16 05:12:00,65.0,65.0,30.03,SSE,151,0.0,1.0,98,-99.99,,,-99.99,,2013-01-16 10:12:00,
2013-01-16 05:22:00,65.0,65.0,30.03,SSE,151,0.0,1.0,98,-99.99,,,-99.99,,2013-01-16 10:22:00,
2013-01-16 05:32:00,65.0,65.0,30.03,ESE,111,0.0,2.0,98,-99.99,,,-99.99,,2013-01-16 10:32:00,
2013-01-16 05:43:00,65.0,65.0,30.03,ESE,116,0.0,1.0,98,-99.99,,,-99.99,,2013-01-16 10:43:00,
2013-01-16 05:53:00,65.0,65.0,30.04,SSE,168,1.0,2.0,98,-99.99,,,-99.99,,2013-01-16 10:53:00,
2013-01-16 06:02:00,65.0,65.0,30.04,SSE,168,1.0,2.0,98,-99.99,,,-99.99,,2013-01-16 11:02:00,
2013-01-16 06:12:00,65.0,65.0,30.04,ESE,108,2.0,9.0,98,-99.99,,,-99.99,,2013-01-16 11:12:00,
2013-01-16 06:23:00,65.0,65.0,30.04,ESE,108,2.0,9.0,98,-99.99,,,-99.99,,2013-01-16 11:23:00,
2013-01-16 06:33:00,65.0,65.0,30.04,ESE,108,2.0,9.0,98,-99.99,,,-99.99,,2013-01-16 11:33:00,
2013-01-16 06:43:00,66.0,65.0,30.05,South,188,2.0,3.0,97,-99.99,,,-99.99,,2013-01-16 11:43:00,
2013-01-16 06:53:00,66.0,66.0,30.05,ESE,114,1.0,9.0,97,-99.99,,,-99.99,,2013-01-16 11:53:00,
2013-01-16 07:03:00,66.0,66.0,30.05,ESE,114,1.0,9.0,97,-99.99,,,-99.99,,2013-01-16 12:03:00,
2013-01-16 07:13:00,66.0,65.0,30.05,NE,44,3.0,8.0,97,-99.99,,,-99.99,,2013-01-16 12:13:00,
2013-01-16 07:22:00,66.0,65.0,30.05,NE,44,3.0,8.0,97,-99.99,,,-99.99,,2013-01-16 12:22:00,
2013-01-16 07:33:00,67.0,66.0,30.06,East,79,2.0,4.0,97,-99.99,,,-99.99,,2013-01-16 12:33:00,
2013-01-16 07:43:00,67.0,66.0,30.06,WNW,301,2.0,4.0,97,-99.99,,,-99.99,,2013-01-16 12:43:00,
2013-01-16 07:53:00,67.0,66.0,30.06,WNW,292,2.0,7.0,97,-99.99,,,-99.99,,2013-01-16 12:53:00,
2013-01-16 08:03:00,67.0,66.0,30.06,WNW,292,2.0,7.0,97,-99.99,,,-99.99,,2013-01-16 13:03:00,
2013-01-16 08:12:00,67.0,66.0,30.07,West,259,3.0,32.0,97,-99.99,,,-99.99,,2013-01-16 13:12:00,
2013-01-16 08:23:00,67.0,66.0,30.07,West,259,3.0,32.0,97,-99.99,,,-99.99,,2013-01-16 13:23:00,
2013-01-16 08:33:00,67.0,66.0,30.07,East,85,4.0,104.0,97,-99.99,,,-99.99,,2013-01-16 13:33:00,
2013-01-16 08:43:00,68.0,67.0,30.07,ENE,77,1.0,2.0,96,-99.99,,,-99.99,,2013-01-16 13:43:00,
2013-01-16 08:53:00,70.0,69.0,30.08,WNW,290,1.0,1.0,95,-99.99,,,-99.99,,2013-01-16 13:53:00,
2013-01-16 09:03:00,70.0,69.0,30.08,WNW,290,1.0,1.0,95,-99.99,,,-99.99,,2013-01-16 14:03:00,
2013-01-16 09:12:00,72.0,69.0,30.08,SW,236,0.0,1.0,91,-99.99,,,-99.99,,2013-01-16 14:12:00,
2013-01-16 09:23:00,72.0,69.0,30.08,SW,236,0.0,1.0,91,-99.99,,,-99.99,,2013-01-16 14:23:00,
2013-01-16 09:33:00,72.0,69.0,30.08,SW,236,0.0,1.0,91,-99.99,,,-99.99,,2013-01-16 14:33:00,
2013-01-16 09:43:00,75.0,68.0,30.09,South,176,2.0,4.0,77,-99.99,,,-99.99,,2013-01-16 14:43:00,
2013-01-16 09:53:00,76.0,67.0,30.09,SSE,161,3.0,7.0,73,-99.99,,,-99.99,,2013-01-16 14:53:00,
2013-01-16 10:03:00,76.0,67.0,30.09,SSE,161,3.0,7.0,73,-99.99,,,-99.99,,2013-01-16 15:03:00,
2013-01-16 10:12:00,77.0,68.0,30.10,SSE,154,4.0,7.0,73,-99.99,,,-99.99,,2013-01-16 15:12:00,
2013-01-16 10:23:00,77.0,68.0,30.10,SSE,154,4.0,7.0,73,-99.99,,,-99.99,,2013-01-16 15:23:00,
2013-01-16 10:33:00,77.0,68.0,30.10,SSE,154,4.0,7.0,73,-99.99,,,-99.99,,2013-01-16 15:33:00,
2013-01-16 10:43:00,79.0,67.0,30.10,SSE,159,9.0,14.0,67,-99.99,,,-99.99,,2013-01-16 15:43:00,
2013-01-16 10:53:00,78.0,67.0,30.09,SSE,163,7.0,13.0,68,-99.99,,,-99.99,,2013-01-16 15:53:00,
2013-01-16 11:04:00,78.0,67.0,30.09,SSE,163,7.0,13.0,68,-99.99,,,-99.99,,2013-01-16 16:04:00,
2013-01-16 11:12:00,78.0,67.0,30.09,SSE,160,9.0,14.0,67,-99.99,,,-99.99,,2013-01-16 16:12:00,
2013-01-16 11:23:00,78.0,67.0,30.09,SSE,160,9.0,14.0,67,-99.99,,,-99.99,,2013-01-16 16:23:00,
2013-01-16 11:33:00,79.0,66.0,30.08,SSE,160,9.0,13.0,64,-99.99,,,-99.99,,2013-01-16 16:33:00,
2013-01-16 11:43:00,79.0,67.0,30.08,SSE,152,9.0,13.0,65,-99.99,,,-99.99,,2013-01-16 16:43:00,
2013-01-16 11:53:00,78.0,66.0,30.07,SE,146,9.0,14.0,67,-99.99,,,-99.99,,2013-01-16 16:53:00,
2013-01-16 12:03:00,78.0,66.0,30.07,SE,146,9.0,14.0,67,-99.99,,,-99.99,,2013-01-16 17:03:00,
2013-01-16 12:12:00,78.0,67.0,30.06,SE,143,9.0,15.0,67,-99.99,,,-99.99,,2013-01-16 17:12:00,
2013-01-16 12:23:00,78.0,67.0,30.06,SE,143,9.0,15.0,67,-99.99,,,-99.99,,2013-01-16 17:23:00,
2013-01-16 12:33:00,80.0,67.0,30.05,SSE,148,9.0,14.0,64,-99.99,,,-99.99,,2013-01-16 17:33:00,
2013-01-16 12:44:00,80.0,67.0,30.05,SSE,155,10.0,15.0,63,-99.99,,,-99.99,,2013-01-16 17:44:00,
2013-01-16 12:53:00,79.0,67.0,30.04,SE,143,7.0,12.0,65,-99.99,,,-99.99,,2013-01-16 17:53:00,
2013-01-16 13:03:00,79.0,67.0,30.04,SE,143,7.0,12.0,65,-99.99,,,-99.99,,2013-01-16 18:03:00,
2013-01-16 13:13:00,79.0,67.0,30.04,SE,141,10.0,17.0,66,-99.99,,,-99.99,,2013-01-16 18:13:00,
2013-01-16 13:23:00,79.0,67.0,30.04,SE,141,10.0,17.0,66,-99.99,,,-99.99,,2013-01-16 18:23:00,
2013-01-16 13:33:00,80.0,68.0,30.03,SE,134,10.0,17.0,67,-99.99,,,-99.99,,2013-01-16 18:33:00,
2013-01-16 13:43:00,80.0,68.0,30.02,SE,145,11.0,17.0,65,-99.99,,,-99.99,,2013-01-16 18:43:00,
2013-01-16 13:53:00,79.0,68.0,30.02,SSE,147,11.0,18.0,66,-99.99,,,-99.99,,2013-01-16 18:53:00,
2013-01-16 14:03:00,79.0,68.0,30.02,SSE,147,11.0,18.0,66,-99.99,,,-99.99,,2013-01-16 19:03:00,
2013-01-16 14:13:00,80.0,68.0,30.01,SSE,161,9.0,15.0,66,-99.99,,,-99.99,,2013-01-16 19:13:00,
2013-01-16 14:23:00,80.0,68.0,30.01,SSE,161,9.0,15.0,66,-99.99,,,-99.99,,2013-01-16 19:23:00,
2013-01-16 14:33:00,80.0,68.0,30.01,SE,143,10.0,15.0,65,-99.99,,,-99.99,,2013-01-16 19:33:00,
2013-01-16 14:43:00,80.0,68.0,30.01,SE,144,11.0,17.0,67,-99.99,,,-99.99,,2013-01-16 19:43:00,
2013-01-16 14:53:00,79.0,68.0,30.00,SE,146,9.0,13.0,68,-99.99,,,-99.99,,2013-01-16 19:53:00,
2013-01-16 15:03:00,79.0,68.0,30.00,SE,146,9.0,13.0,68,-99.99,,,-99.99,,2013-01-16 20:03:00,
2013-01-16 15:12:00,79.0,68.0,30.00,SE,140,10.0,15.0,69,-99.99,,,-99.99,,2013-01-16 20:12:00,
2013-01-16 15:23:00,79.0,68.0,30.00,SE,140,10.0,15.0,69,-99.99,,,-99.99,,2013-01-16 20:23:00,
2013-01-16 15:33:00,79.0,69.0,30.00,SE,141,9.0,14.0,69,-99.99,,,-99.99,,2013-01-16 20:33:00,
2013-01-16 15:43:00,79.0,69.0,30.00,SE,138,10.0,16.0,69,-99.99,,,-99.99,,2013-01-16 20:43:00,
2013-01-16 15:53:00,78.0,68.0,30.01,SSE,157,10.0,13.0,70,-99.99,,,-99.99,,2013-01-16 20:53:00,
2013-01-16 16:03:00,78.0,68.0,30.01,SSE,157,10.0,13.0,70,-99.99,,,-99.99,,2013-01-16 21:03:00,
2013-01-16 16:12:00,79.0,68.0,30.01,SE,146,9.0,15.0,68,-99.99,,,-99.99,,2013-01-16 21:12:00,
2013-01-16 16:23:00,79.0,68.0,30.01,SE,146,9.0,15.0,68,-99.99,,,-99.99,,2013-01-16 21:23:00,
2013-01-16 16:33:00,79.0,68.0,30.01,SSE,154,11.0,16.0,68,-99.99,,,-99.99,,2013-01-16 21:33:00,
2013-01-16 16:43:00,79.0,68.0,30.01,SSE,149,10.0,15.0,69,-99.99,,,-99.99,,2013-01-16 21:43:00,
2013-01-16 16:53:00,79.0,68.0,30.02,SE,145,9.0,14.0,70,-99.99,,,-99.99,,2013-01-16 21:53:00,
2013-01-16 17:03:00,79.0,68.0,30.02,SE,145,9.0,14.0,70,-99.99,,,-99.99,,2013-01-16 22:03:00,
2013-01-16 17:12:00,79.0,68.0,30.02,SSE,156,10.0,14.0,69,-99.99,,,-99.99,,2013-01-16 22:12:00,
2013-01-16 17:23:00,77.0,69.0,30.02,SSE,153,9.0,16.0,73,-99.99,,,-99.99,,2013-01-16 22:23:00,
2013-01-16 17:33:00,77.0,69.0,30.02,SSE,153,9.0,16.0,73,-99.99,,,-99.99,,2013-01-16 22:33:00,
2013-01-16 17:43:00,77.0,69.0,30.02,SSE,156,10.0,15.0,75,-99.99,,,-99.99,,2013-01-16 22:43:00,
2013-01-16 17:53:00,76.0,68.0,30.03,SSE,149,9.0,14.0,77,-99.99,,,-99.99,,2013-01-16 22:53:00,
2013-01-16 18:03:00,76.0,68.0,30.03,SSE,149,9.0,14.0,77,-99.99,,,-99.99,,2013-01-16 23:03:00,
2013-01-16 18:12:00,75.0,68.0,30.03,SSE,152,8.0,12.0,78,-99.99,,,-99.99,,2013-01-16 23:12:00,
2013-01-16 18:23:00,75.0,68.0,30.03,SSE,152,8.0,12.0,78,-99.99,,,-99.99,,2013-01-16 23:23:00,
2013-01-16 18:33:00,74.0,68.0,30.03,SSE,149,6.0,10.0,80,-99.99,,,-99.99,,2013-01-16 23:33:00,
2013-01-16 18:43:00,74.0,68.0,30.03,SSE,152,5.0,8.0,82,-99.99,,,-99.99,,2013-01-16 23:43:00,
2013-01-16 18:53:00,73.0,68.0,30.03,SSE,152,5.0,8.0,83,-99.99,,,-99.99,,2013-01-16 23:53:00,
2013-01-16 19:02:00,73.0,68.0,30.03,SSE,152,5.0,8.0,83,-99.99,,,-99.99,,2013-01-17 00:02:00,
2013-01-16 19:12:00,73.0,68.0,30.04,SSE,149,4.0,6.0,84,-99.99,,,-99.99,,2013-01-17 00:12:00,
2013-01-16 19:22:00,73.0,68.0,30.04,SSE,149,4.0,6.0,84,-99.99,,,-99.99,,2013-01-17 00:22:00,
2013-01-16 19:32:00,72.0,68.0,30.04,SE,146,4.0,5.0,86,-99.99,,,-99.99,,2013-01-17 00:32:00,
2013-01-16 19:42:00,72.0,68.0,30.05,SE,146,4.0,6.0,87,-99.99,,,-99.99,,2013-01-17 00:42:00,
2013-01-16 19:53:00,72.0,68.0,30.05,SSE,147,5.0,6.0,88,-99.99,,,-99.99,,2013-01-17 00:53:00,
2013-01-16 20:02:00,72.0,68.0,30.05,SSE,147,5.0,6.0,88,-99.99,,,-99.99,,2013-01-17 01:02:00,
2013-01-16 20:12:00,72.0,68.0,30.05,SE,143,5.0,6.0,88,-99.99,,,-99.99,,2013-01-17 01:12:00,
2013-01-16 20:22:00,72.0,68.0,30.05,SE,143,5.0,6.0,88,-99.99,,,-99.99,,2013-01-17 01:22:00,
2013-01-16 20:33:00,72.0,68.0,30.05,SE,143,5.0,7.0,88,-99.99,,,-99.99,,2013-01-17 01:33:00,
2013-01-16 20:42:00,71.0,68.0,30.05,SE,141,5.0,7.0,88,-99.99,,,-99.99,,2013-01-17 01:42:00,
2013-01-16 20:53:00,71.0,68.0,30.06,SE,139,4.0,7.0,88,-99.99,,,-99.99,,2013-01-17 01:53:00,
2013-01-16 21:02:00,71.0,68.0,30.06,SE,139,4.0,7.0,88,-99.99,,,-99.99,,2013-01-17 02:02:00,
2013-01-16 21:12:00,71.0,68.0,30.06,SSE,149,4.0,6.0,90,-99.99,,,-99.99,,2013-01-17 02:12:00,
2013-01-16 21:22:00,71.0,68.0,30.06,SSE,149,4.0,6.0,90,-99.99,,,-99.99,,2013-01-17 02:22:00,
2013-01-16 21:32:00,71.0,68.0,30.06,SSE,149,4.0,6.0,90,-99.99,,,-99.99,,2013-01-17 02:32:00,
2013-01-16 21:43:00,71.0,68.0,30.06,SSE,149,4.0,6.0,90,-99.99,,,-99.99,,2013-01-17 02:43:00,
2013-01-16 22:03:00,71.0,68.0,30.06,SE,133,4.0,6.0,91,-99.99,,,-99.99,,2013-01-17 03:03:00,
2013-01-16 22:12:00,71.0,68.0,30.06,SE,133,4.0,6.0,91,-99.99,,,-99.99,,2013-01-17 03:12:00,
2013-01-16 22:22:00,71.0,68.0,30.05,SE,136,4.0,6.0,92,-99.99,,,-99.99,,2013-01-17 03:22:00,
2013-01-16 22:33:00,71.0,68.0,30.05,SE,146,3.0,6.0,92,-99.99,,,-99.99,,2013-01-17 03:33:00,
2013-01-16 22:43:00,71.0,68.0,30.05,SE,128,2.0,3.0,92,-99.99,,,-99.99,,2013-01-17 03:43:00,
2013-01-16 22:53:00,70.0,68.0,30.05,SSE,156,1.0,3.0,93,-99.99,,,-99.99,,2013-01-17 03:53:00,
2013-01-16 23:02:00,70.0,68.0,30.05,SSE,156,1.0,3.0,93,-99.99,,,-99.99,,2013-01-17 04:02:00,
2013-01-16 23:12:00,70.0,68.0,30.04,SE,143,1.0,3.0,94,-99.99,,,-99.99,,2013-01-17 04:12:00,
2013-01-16 23:23:00,70.0,68.0,30.04,SE,143,1.0,3.0,94,-99.99,,,-99.99,,2013-01-17 04:23:00,
2013-01-16 23:33:00,69.0,68.0,30.04,SW,228,2.0,3.0,95,-99.99,,,-99.99,,2013-01-17 04:33:00,
2013-01-16 23:42:00,69.0,68.0,30.03,SSE,149,2.0,4.0,96,-99.99,,,-99.99,,2013-01-17 04:42:00,
2013-01-16 23:53:00,70.0,68.0,30.03,SE,143,2.0,2.0,96,-99.99,,,-99.99,,2013-01-17 04:53:00,